createdAt,value
2022-12-19T00:00:28.786Z,-2.95
2022-12-19T00:01:36.594Z,-2.93
2022-12-19T00:02:39.692Z,-2.97
2022-12-19T00:03:50.873Z,-3.01
2022-12-19T00:04:53.793Z,-3.05
2022-12-19T00:05:56.875Z,-3.07
2022-12-19T00:07:00.542Z,-2.98
2022-12-19T00:08:05.216Z,-2.94
2022-12-19T00:09:20.315Z,-2.95
2022-12-19T00:10:23.340Z,-2.92
2022-12-19T00:11:28.025Z,-2.95
2022-12-19T00:12:31.412Z,-2.93
2022-12-19T00:13:41.096Z,-2.95
2022-12-19T00:14:44.380Z,-2.96
2022-12-19T00:15:47.402Z,-2.92
2022-12-19T00:16:50.572Z,-2.88
2022-12-19T00:17:53.693Z,-2.81
2022-12-19T00:18:59.819Z,-2.85
2022-12-19T00:20:02.731Z,-2.89
2022-12-19T00:21:06.542Z,-2.95
2022-12-19T00:22:11.293Z,-2.90
2022-12-19T00:23:14.571Z,-2.97
2022-12-19T00:24:20.693Z,-2.98
2022-12-19T00:25:24.502Z,-3.00
2022-12-19T00:26:33.386Z,-2.90
2022-12-19T00:27:36.953Z,-2.89
2022-12-19T00:28:41.076Z,-2.95
2022-12-19T00:29:44.052Z,-2.90
2022-12-19T00:30:47.323Z,-2.87
2022-12-19T00:31:50.313Z,-2.87
2022-12-19T00:32:53.321Z,-2.88
2022-12-19T00:33:57.096Z,-2.87
2022-12-19T00:35:00.115Z,-2.90
2022-12-19T00:36:08.659Z,-2.89
2022-12-19T00:37:12.392Z,-2.95
2022-12-19T00:38:15.331Z,-2.85
2022-12-19T00:39:18.514Z,-2.79
2022-12-19T00:40:21.627Z,-2.88
2022-12-19T00:41:30.618Z,-2.93
2022-12-19T00:42:33.606Z,-2.96
2022-12-19T00:43:37.215Z,-2.92
2022-12-19T00:44:40.115Z,-2.93
2022-12-19T00:45:43.119Z,-2.98
2022-12-19T00:46:51.054Z,-2.99
2022-12-19T00:47:56.461Z,-3.00
2022-12-19T00:49:00.297Z,-2.99
2022-12-19T00:50:04.379Z,-2.98
2022-12-19T00:51:13.626Z,-2.96
2022-12-19T00:52:16.558Z,-2.91
2022-12-19T00:53:19.456Z,-2.87
2022-12-19T00:54:22.401Z,-2.84
2022-12-19T00:55:25.957Z,-2.85
2022-12-19T00:56:31.694Z,-2.88
2022-12-19T00:57:38.013Z,-2.87
2022-12-19T00:58:46.420Z,-2.87
2022-12-19T00:59:49.746Z,-2.85
2022-12-19T01:00:53.011Z,-2.79
2022-12-19T01:01:56.392Z,-2.77
2022-12-19T01:03:00.499Z,-2.82
2022-12-19T01:05:30.821Z,-2.92
2022-12-19T01:06:34.516Z,-2.91
2022-12-19T01:07:37.846Z,-2.94
2022-12-19T01:08:41.299Z,-2.93
2022-12-19T01:09:44.048Z,-2.87
2022-12-19T01:10:49.736Z,-2.88
2022-12-19T01:12:11.381Z,-2.88
2022-12-19T01:13:15.599Z,-2.87
2022-12-19T01:14:22.817Z,-2.87
2022-12-19T01:15:26.378Z,-2.84
2022-12-19T01:16:29.150Z,-2.86
2022-12-19T01:17:43.529Z,-2.88
2022-12-19T01:18:47.288Z,-2.82
2022-12-19T01:19:50.075Z,-2.80
2022-12-19T01:20:52.768Z,-2.69
2022-12-19T01:21:55.734Z,-2.74
2022-12-19T01:23:00.221Z,-2.75
2022-12-19T01:24:05.047Z,-2.81
2022-12-19T01:25:08.430Z,-2.73
2022-12-19T01:26:11.122Z,-2.70
2022-12-19T01:27:13.778Z,-2.72
2022-12-19T01:28:16.706Z,-2.70
2022-12-19T01:29:21.398Z,-2.72
2022-12-19T01:30:24.193Z,-2.70
2022-12-19T01:31:27.397Z,-2.79
2022-12-19T01:32:30.755Z,-2.77
2022-12-19T01:33:33.436Z,-2.73
2022-12-19T01:34:36.362Z,-2.69
2022-12-19T01:35:43.262Z,-2.68
2022-12-19T01:36:46.030Z,-2.68
2022-12-19T01:37:49.926Z,-2.72
2022-12-19T01:38:58.619Z,-2.71
2022-12-19T01:40:01.529Z,-2.58
2022-12-19T01:41:04.972Z,-2.70
2022-12-19T01:42:19.601Z,-2.73
2022-12-19T01:43:31.135Z,-2.64
2022-12-19T01:44:34.587Z,-2.73
2022-12-19T01:45:43.858Z,-2.78
2022-12-19T01:46:51.902Z,-2.82
2022-12-19T01:48:03.169Z,-2.80
2022-12-19T01:49:13.989Z,-2.71
2022-12-19T01:50:27.558Z,-2.77
2022-12-19T01:51:41.256Z,-2.76
2022-12-19T01:52:44.348Z,-2.79
2022-12-19T01:53:51.457Z,-2.82
2022-12-19T01:54:54.214Z,-2.81
2022-12-19T01:55:57.097Z,-2.85
2022-12-19T01:57:01.620Z,-2.86
2022-12-19T01:58:05.340Z,-2.86
2022-12-19T01:59:16.875Z,-2.85
2022-12-19T02:00:19.745Z,-2.85
2022-12-19T02:01:24.841Z,-2.84
2022-12-19T02:02:37.802Z,-2.71
2022-12-19T02:03:41.818Z,-2.75
2022-12-19T02:04:46.382Z,-2.76
2022-12-19T02:05:50.462Z,-2.83
2022-12-19T02:06:55.947Z,-2.85
2022-12-19T02:08:00.574Z,-2.68
2022-12-19T02:09:03.338Z,-2.65
2022-12-19T02:10:06.675Z,-2.79
2022-12-19T02:11:09.471Z,-2.84
2022-12-19T02:12:14.967Z,-2.86
2022-12-19T02:13:18.473Z,-2.82
2022-12-19T02:14:21.817Z,-2.68
2022-12-19T02:15:29.988Z,-2.79
2022-12-19T02:17:20.067Z,-2.81
2022-12-19T02:18:38.834Z,-2.88
2022-12-19T02:19:59.526Z,-2.84
2022-12-19T02:21:33.042Z,-2.93
2022-12-19T02:23:13.152Z,-2.88
2022-12-19T02:24:39.862Z,-2.89
2022-12-19T02:25:56.722Z,-2.95
2022-12-19T02:27:22.481Z,-2.98
2022-12-19T02:28:53.092Z,-2.95
2022-12-19T02:30:07.430Z,-3.01
2022-12-19T02:31:21.909Z,-2.99
2022-12-19T02:32:46.303Z,-3.07
2022-12-19T02:34:04.530Z,-3.08
2022-12-19T02:35:17.739Z,-2.94
2022-12-19T02:36:29.828Z,-3.01
2022-12-19T02:37:50.278Z,-3.07
2022-12-19T02:39:06.020Z,-3.06
2022-12-19T02:40:20.327Z,-3.11
2022-12-19T02:41:43.564Z,-3.12
2022-12-19T02:42:52.244Z,-3.15
2022-12-19T02:43:58.977Z,-3.16
2022-12-19T02:45:05.568Z,-3.15
2022-12-19T02:46:10.242Z,-3.13
2022-12-19T02:47:14.959Z,-3.09
2022-12-19T02:48:19.422Z,-3.07
2022-12-19T02:49:26.875Z,-3.06
2022-12-19T02:50:42.202Z,-3.06
2022-12-19T02:51:45.093Z,-3.07
2022-12-19T02:52:49.752Z,-3.09
2022-12-19T02:53:52.604Z,-3.12
2022-12-19T02:55:01.768Z,-3.11
2022-12-19T02:56:18.499Z,-3.02
2022-12-19T02:57:30.432Z,-3.02
2022-12-19T02:59:05.089Z,-3.04
2022-12-19T03:00:36.999Z,-3.03
2022-12-19T03:01:51.801Z,-2.99
2022-12-19T03:03:21.431Z,-2.97
2022-12-19T03:04:29.983Z,-2.97
2022-12-19T03:05:32.860Z,-2.99
2022-12-19T03:06:48.814Z,-2.96
2022-12-19T03:08:25.260Z,-2.95
2022-12-19T03:09:34.093Z,-2.88
2022-12-19T03:10:54.811Z,-2.89
2022-12-19T03:12:05.739Z,-2.85
2022-12-19T03:13:13.414Z,-2.86
2022-12-19T03:14:19.896Z,-2.79
2022-12-19T03:15:24.066Z,-2.79
2022-12-19T03:16:27.253Z,-2.72
2022-12-19T03:17:35.859Z,-2.74
2022-12-19T03:18:39.691Z,-2.78
2022-12-19T03:19:42.790Z,-2.75
2022-12-19T03:21:02.857Z,-2.72
2022-12-19T03:22:05.696Z,-2.73
2022-12-19T03:23:08.744Z,-2.72
2022-12-19T03:24:13.464Z,-2.74
2022-12-19T03:25:16.452Z,-2.52
2022-12-19T03:26:21.913Z,-2.51
2022-12-19T03:27:30.952Z,-2.57
2022-12-19T03:28:42.352Z,-2.47
2022-12-19T03:29:55.336Z,-2.44
2022-12-19T03:31:00.023Z,-2.46
2022-12-19T03:32:05.814Z,-2.49
2022-12-19T03:33:10.697Z,-2.51
2022-12-19T03:34:25.743Z,-2.44
2022-12-19T03:35:32.514Z,-2.40
2022-12-19T03:36:43.142Z,-2.47
2022-12-19T03:37:49.259Z,-2.34
2022-12-19T03:38:52.902Z,-2.45
2022-12-19T03:40:02.205Z,-2.46
2022-12-19T03:41:10.778Z,-2.44
2022-12-19T03:42:35.096Z,-2.42
2022-12-19T03:43:39.102Z,-2.49
2022-12-19T03:44:43.657Z,-2.52
2022-12-19T03:46:05.340Z,-2.52
2022-12-19T03:47:18.082Z,-2.47
2022-12-19T03:48:27.472Z,-2.44
2022-12-19T03:49:30.411Z,-2.45
2022-12-19T03:50:51.268Z,-2.44
2022-12-19T03:52:06.910Z,-2.46
2022-12-19T03:53:57.236Z,-2.38
2022-12-19T03:55:22.033Z,-2.35
2022-12-19T03:56:49.429Z,-2.28
2022-12-19T03:57:56.277Z,-2.31
2022-12-19T03:59:10.320Z,-2.38
2022-12-19T04:00:16.379Z,-2.35
2022-12-19T04:01:19.621Z,-2.29
2022-12-19T04:02:24.478Z,-2.23
2022-12-19T04:03:30.401Z,-2.25
2022-12-19T04:04:39.574Z,-2.30
2022-12-19T04:05:44.038Z,-2.26
2022-12-19T04:06:49.062Z,-2.29
2022-12-19T04:07:57.541Z,-2.34
2022-12-19T04:09:01.420Z,-2.34
2022-12-19T04:10:11.714Z,-2.31
2022-12-19T04:11:20.373Z,-2.32
2022-12-19T04:12:31.072Z,-2.34
2022-12-19T04:13:39.161Z,-2.32
2022-12-19T04:14:42.457Z,-2.22
2022-12-19T04:16:10.160Z,-2.22
2022-12-19T04:17:51.763Z,-2.22
2022-12-19T04:19:03.603Z,-2.29
2022-12-19T04:20:09.461Z,-2.13
2022-12-19T04:21:19.223Z,-2.13
2022-12-19T04:22:35.066Z,-2.23
2022-12-19T04:23:45.225Z,-2.26
2022-12-19T04:24:50.679Z,-2.31
2022-12-19T04:25:59.539Z,-2.25
2022-12-19T04:27:06.053Z,-2.24
2022-12-19T04:28:20.571Z,-2.28
2022-12-19T04:29:25.158Z,-2.29
2022-12-19T04:30:27.891Z,-2.30
2022-12-19T04:31:31.562Z,-2.24
2022-12-19T04:32:36.939Z,-2.24
2022-12-19T04:33:39.899Z,-2.27
2022-12-19T04:34:43.196Z,-2.27
2022-12-19T04:35:46.182Z,-2.25
2022-12-19T04:36:50.709Z,-2.24
2022-12-19T04:37:53.385Z,-2.23
2022-12-19T04:38:56.269Z,-2.25
2022-12-19T04:39:59.848Z,-2.23
2022-12-19T04:41:03.196Z,-2.19
2022-12-19T04:42:06.097Z,-2.22
2022-12-19T04:43:09.778Z,-2.20
2022-12-19T04:44:12.717Z,-2.14
2022-12-19T04:45:15.545Z,-2.16
2022-12-19T04:46:18.804Z,-2.19
2022-12-19T04:47:21.904Z,-2.20
2022-12-19T04:48:25.209Z,-2.21
2022-12-19T04:49:28.112Z,-2.23
2022-12-19T04:50:33.192Z,-2.22
2022-12-19T04:51:35.864Z,-2.03
2022-12-19T04:52:38.830Z,-2.14
2022-12-19T04:53:41.545Z,-2.19
2022-12-19T04:54:44.585Z,-2.17
2022-12-19T04:55:47.344Z,-2.18
2022-12-19T04:56:50.186Z,-2.20
2022-12-19T04:57:53.389Z,-2.20
2022-12-19T04:58:59.731Z,-2.23
2022-12-19T05:00:04.186Z,-2.24
2022-12-19T05:01:09.079Z,-2.13
2022-12-19T05:02:11.849Z,-2.22
2022-12-19T05:03:14.676Z,-2.24
2022-12-19T05:04:17.586Z,-2.25
2022-12-19T05:05:20.377Z,-2.27
2022-12-19T05:06:23.585Z,-2.32
2022-12-19T05:07:26.430Z,-2.35
2022-12-19T05:08:29.626Z,-2.37
2022-12-19T05:09:32.467Z,-2.32
2022-12-19T05:10:37.135Z,-2.32
2022-12-19T05:11:39.861Z,-2.30
2022-12-19T05:12:42.699Z,-2.30
2022-12-19T05:13:45.465Z,-2.28
2022-12-19T05:14:48.215Z,-2.31
2022-12-19T05:16:17.062Z,-2.33
2022-12-19T05:17:20.038Z,-2.38
2022-12-19T05:18:23.025Z,-2.44
2022-12-19T05:19:25.786Z,-2.44
2022-12-19T05:20:28.551Z,-2.44
2022-12-19T05:21:31.857Z,-2.42
2022-12-19T05:22:34.544Z,-2.46
2022-12-19T05:23:37.351Z,-2.48
2022-12-19T05:24:40.026Z,-2.47
2022-12-19T05:25:42.689Z,-2.48
2022-12-19T05:26:45.427Z,-2.52
2022-12-19T05:27:48.350Z,-2.52
2022-12-19T05:28:51.087Z,-2.48
2022-12-19T05:29:53.780Z,-2.42
2022-12-19T05:31:05.515Z,-2.37
2022-12-19T05:32:08.275Z,-2.43
2022-12-19T05:33:11.403Z,-2.50
2022-12-19T05:34:14.142Z,-2.48
2022-12-19T05:35:16.873Z,-2.49
2022-12-19T05:36:20.335Z,-2.50
2022-12-19T05:37:23.089Z,-2.51
2022-12-19T05:38:26.656Z,-2.51
2022-12-19T05:39:30.048Z,-2.50
2022-12-19T05:40:33.612Z,-2.48
2022-12-19T05:41:36.572Z,-2.46
2022-12-19T05:42:39.482Z,-2.45
2022-12-19T05:43:42.864Z,-2.48
2022-12-19T05:44:45.988Z,-2.44
2022-12-19T05:45:48.696Z,-2.44
2022-12-19T05:46:51.491Z,-2.42
2022-12-19T05:47:58.654Z,-2.40
2022-12-19T05:49:04.292Z,-2.32
2022-12-19T05:50:07.503Z,-2.42
2022-12-19T05:51:10.500Z,-2.41
2022-12-19T05:52:13.245Z,-2.43
2022-12-19T05:53:19.692Z,-2.47
2022-12-19T05:54:26.389Z,-2.48
2022-12-19T05:55:29.325Z,-2.45
2022-12-19T05:56:32.072Z,-2.45
2022-12-19T05:57:35.544Z,-2.47
2022-12-19T05:58:40.512Z,-2.49
2022-12-19T05:59:43.342Z,-2.47
2022-12-19T06:00:46.114Z,-2.44
2022-12-19T06:01:48.972Z,-2.45
2022-12-19T06:02:51.802Z,-2.47
2022-12-19T06:03:55.433Z,-2.44
2022-12-19T06:04:58.056Z,-2.47
2022-12-19T06:06:12.667Z,-2.50
2022-12-19T06:07:20.752Z,-2.50
2022-12-19T06:08:24.376Z,-2.49
2022-12-19T06:09:27.075Z,-2.46
2022-12-19T06:10:29.705Z,-2.47
2022-12-19T06:11:32.422Z,-2.46
2022-12-19T06:12:35.241Z,-2.46
2022-12-19T06:13:38.744Z,-2.44
2022-12-19T06:14:41.454Z,-2.40
2022-12-19T06:15:44.221Z,-2.38
2022-12-19T06:16:47.237Z,-2.42
2022-12-19T06:17:54.206Z,-2.42
2022-12-19T06:18:56.961Z,-2.33
2022-12-19T06:20:00.095Z,-2.33
2022-12-19T06:21:06.374Z,-2.34
2022-12-19T06:22:09.130Z,-2.32
2022-12-19T06:23:11.952Z,-2.35
2022-12-19T06:24:14.668Z,-2.27
2022-12-19T06:25:17.320Z,-2.22
2022-12-19T06:26:21.809Z,-2.23
2022-12-19T06:27:24.485Z,-2.24
2022-12-19T06:28:28.977Z,-2.25
2022-12-19T06:29:31.881Z,-2.25
2022-12-19T06:30:34.616Z,-2.24
2022-12-19T06:31:37.382Z,-2.25
2022-12-19T06:32:40.054Z,-2.07
2022-12-19T06:33:42.902Z,-1.91
2022-12-19T06:35:03.819Z,-1.99
2022-12-19T06:36:13.761Z,-2.09
2022-12-19T06:37:16.686Z,-2.16
2022-12-19T06:38:19.332Z,-2.06
2022-12-19T06:39:22.696Z,-2.10
2022-12-19T06:40:43.821Z,-2.16
2022-12-19T06:42:04.916Z,-2.18
2022-12-19T06:43:07.531Z,-2.17
2022-12-19T06:44:12.754Z,-2.10
2022-12-19T06:45:15.523Z,-2.09
2022-12-19T06:46:18.238Z,-2.10
2022-12-19T06:47:22.380Z,-2.16
2022-12-19T06:48:27.763Z,-2.11
2022-12-19T06:49:30.536Z,-2.14
2022-12-19T06:50:33.313Z,-2.12
2022-12-19T06:51:36.090Z,-2.12
2022-12-19T06:52:38.728Z,-2.15
2022-12-19T06:53:41.890Z,-2.08
2022-12-19T06:54:44.732Z,-2.12
2022-12-19T06:55:49.223Z,-2.12
2022-12-19T06:56:52.055Z,-2.11
2022-12-19T06:57:55.536Z,-2.03
2022-12-19T06:58:58.228Z,-1.95
2022-12-19T07:00:01.012Z,-2.07
2022-12-19T07:01:03.816Z,-1.93
2022-12-19T07:02:24.772Z,-2.04
2022-12-19T07:03:32.653Z,-2.03
2022-12-19T07:04:44.030Z,-2.12
2022-12-19T07:05:47.330Z,-2.07
2022-12-19T07:06:50.180Z,-2.07
2022-12-19T07:07:53.221Z,-2.12
2022-12-19T07:08:55.971Z,-2.12
2022-12-19T07:09:59.112Z,-2.10
2022-12-19T07:11:02.457Z,-2.16
2022-12-19T07:12:05.389Z,-2.15
2022-12-19T07:13:08.283Z,-2.15
2022-12-19T07:14:10.998Z,-2.15
2022-12-19T07:15:14.219Z,-2.08
2022-12-19T07:16:17.059Z,-1.99
2022-12-19T07:17:22.245Z,-2.00
2022-12-19T07:18:24.923Z,-2.05
2022-12-19T07:19:28.837Z,-2.11
2022-12-19T07:20:33.840Z,-2.10
2022-12-19T07:21:37.127Z,-2.08
2022-12-19T07:22:41.170Z,-2.04
2022-12-19T07:23:44.455Z,-2.03
2022-12-19T07:24:47.390Z,-2.02
2022-12-19T07:25:50.422Z,-1.97
2022-12-19T07:26:53.276Z,-1.88
2022-12-19T07:27:56.234Z,-1.88
2022-12-19T07:29:00.166Z,-1.84
2022-12-19T07:30:06.041Z,-1.80
2022-12-19T07:31:08.960Z,-1.78
2022-12-19T07:32:11.689Z,-1.77
2022-12-19T07:33:18.354Z,-1.83
2022-12-19T07:34:24.088Z,-1.91
2022-12-19T07:35:26.924Z,-1.96
2022-12-19T07:36:29.855Z,-1.96
2022-12-19T07:37:32.688Z,-1.89
2022-12-19T07:38:36.919Z,-1.91
2022-12-19T07:39:39.606Z,-1.91
2022-12-19T07:40:42.596Z,-1.94
2022-12-19T07:41:45.378Z,-1.93
2022-12-19T07:42:47.972Z,-1.92
2022-12-19T07:43:50.844Z,-1.79
2022-12-19T07:44:53.564Z,-1.77
2022-12-19T07:45:57.098Z,-1.70
2022-12-19T07:46:59.795Z,-1.71
2022-12-19T07:48:03.789Z,-1.74
2022-12-19T07:49:06.491Z,-1.79
2022-12-19T07:50:09.398Z,-1.80
2022-12-19T07:51:12.101Z,-1.84
2022-12-19T07:52:14.897Z,-1.93
2022-12-19T07:53:17.577Z,-1.94
2022-12-19T07:54:20.411Z,-2.01
2022-12-19T07:55:23.229Z,-1.92
2022-12-19T07:56:26.098Z,-1.92
2022-12-19T07:57:29.075Z,-2.01
2022-12-19T07:58:31.798Z,-2.03
2022-12-19T07:59:38.955Z,-2.03
2022-12-19T08:00:42.549Z,-2.00
2022-12-19T08:01:45.515Z,-1.99
2022-12-19T08:02:48.926Z,-1.99
2022-12-19T08:03:52.556Z,-2.08
2022-12-19T08:04:55.508Z,-2.06
2022-12-19T08:06:05.557Z,-1.97
2022-12-19T08:07:08.822Z,-2.07
2022-12-19T08:08:11.583Z,-2.01
2022-12-19T08:09:14.486Z,-2.07
2022-12-19T08:10:17.305Z,-2.10
2022-12-19T08:11:29.596Z,-2.06
2022-12-19T08:12:33.917Z,-2.08
2022-12-19T08:13:40.868Z,-2.15
2022-12-19T08:14:47.453Z,-2.11
2022-12-19T08:15:50.339Z,-2.11
2022-12-19T08:17:19.889Z,-2.15
2022-12-19T08:18:16.016Z,-2.12
2022-12-19T08:19:20.569Z,-2.18
2022-12-19T08:20:26.409Z,-2.23
2022-12-19T08:21:29.396Z,-2.24
2022-12-19T08:22:32.309Z,-2.23
2022-12-19T08:23:35.009Z,-2.23
2022-12-19T08:24:37.793Z,-2.19
2022-12-19T08:25:40.668Z,-2.20
2022-12-19T08:26:47.539Z,-2.18
2022-12-19T08:27:50.967Z,-2.15
2022-12-19T08:28:56.391Z,-2.10
2022-12-19T08:29:59.111Z,-2.08
2022-12-19T08:31:11.387Z,-2.10
2022-12-19T08:32:20.867Z,-2.00
2022-12-19T08:33:24.657Z,-2.00
2022-12-19T08:34:27.461Z,-2.00
2022-12-19T08:35:30.230Z,-1.95
2022-12-19T08:36:32.976Z,-2.01
2022-12-19T08:37:35.703Z,-1.84
2022-12-19T08:38:42.433Z,-1.89
2022-12-19T08:39:45.202Z,-1.95
2022-12-19T08:40:54.818Z,-1.96
2022-12-19T08:41:57.418Z,-1.95
2022-12-19T08:43:00.118Z,-1.97
2022-12-19T08:44:02.951Z,-1.98
2022-12-19T08:45:06.252Z,-1.97
2022-12-19T08:46:09.800Z,-1.84
2022-12-19T08:47:12.634Z,-1.78
2022-12-19T08:48:15.302Z,-1.80
2022-12-19T08:49:19.155Z,-1.75
2022-12-19T08:50:21.838Z,-1.82
2022-12-19T08:51:24.713Z,-1.87
2022-12-19T08:52:27.377Z,-1.83
2022-12-19T08:53:32.225Z,-1.80
2022-12-19T08:54:34.934Z,-1.85
2022-12-19T08:55:37.726Z,-1.83
2022-12-19T08:56:46.361Z,-1.84
2022-12-19T08:57:49.668Z,-1.78
2022-12-19T08:58:52.575Z,-1.84
2022-12-19T08:59:55.326Z,-1.77
2022-12-19T09:01:06.012Z,-1.76
2022-12-19T09:02:10.679Z,-1.84
2022-12-19T09:03:13.651Z,-1.82
2022-12-19T09:05:43.717Z,-1.80
2022-12-19T09:06:00.038Z,-1.78
2022-12-19T09:07:03.808Z,-1.73
2022-12-19T09:08:06.984Z,-1.70
2022-12-19T09:09:09.760Z,-1.67
2022-12-19T09:10:12.416Z,-1.64
2022-12-19T09:11:17.739Z,-1.68
2022-12-19T09:12:20.406Z,-1.71
2022-12-19T09:13:23.061Z,-1.69
2022-12-19T09:14:25.672Z,-1.71
2022-12-19T09:15:28.363Z,-1.63
2022-12-19T09:16:31.164Z,-1.57
2022-12-19T09:17:34.075Z,-1.57
2022-12-19T09:18:39.861Z,-1.62
2022-12-19T09:19:47.901Z,-1.65
2022-12-19T09:20:54.386Z,-1.62
2022-12-19T09:21:57.259Z,-1.62
2022-12-19T09:23:00.121Z,-1.57
2022-12-19T09:24:07.923Z,-1.50
2022-12-19T09:25:11.240Z,-1.48
2022-12-19T09:26:14.339Z,-1.48
2022-12-19T09:27:17.470Z,-1.33
2022-12-19T09:28:28.428Z,-1.29
2022-12-19T09:29:35.283Z,-1.33
2022-12-19T09:30:38.482Z,-1.40
2022-12-19T09:31:41.272Z,-1.35
2022-12-19T09:32:44.014Z,-1.38
2022-12-19T09:33:48.042Z,-1.45
2022-12-19T09:34:50.634Z,-1.30
2022-12-19T09:35:56.581Z,-1.39
2022-12-19T09:36:59.609Z,-1.40
2022-12-19T09:38:03.963Z,-1.36
2022-12-19T09:39:06.920Z,-1.42
2022-12-19T09:40:16.772Z,-1.47
2022-12-19T09:41:37.574Z,-1.46
2022-12-19T09:42:55.606Z,-1.48
2022-12-19T09:44:06.919Z,-1.53
2022-12-19T09:45:29.440Z,-1.57
2022-12-19T09:46:52.330Z,-1.49
2022-12-19T09:48:01.695Z,-1.48
2022-12-19T09:49:17.081Z,-1.48
2022-12-19T09:50:52.890Z,-1.50
2022-12-19T09:52:08.410Z,-1.45
2022-12-19T09:53:36.574Z,-1.35
2022-12-19T09:54:42.786Z,-1.33
2022-12-19T09:55:48.429Z,-1.38
2022-12-19T09:56:58.226Z,-1.29
2022-12-19T09:58:19.674Z,-1.33
2022-12-19T09:59:26.129Z,-1.30
2022-12-19T10:00:39.513Z,-1.21
2022-12-19T10:02:10.012Z,-1.23
2022-12-19T10:03:22.736Z,-1.23
2022-12-19T10:04:28.342Z,-1.11
2022-12-19T10:07:07.809Z,-1.07
2022-12-19T10:07:21.975Z,-1.12
2022-12-19T10:10:10.682Z,-1.04
2022-12-19T10:12:34.589Z,-1.06
2022-12-19T10:12:44.610Z,-0.99
2022-12-19T10:13:53.309Z,-1.06
2022-12-19T10:15:20.435Z,-1.07
2022-12-19T10:16:23.057Z,-1.04
2022-12-19T10:17:49.272Z,-0.99
2022-12-19T10:18:57.080Z,-0.99
2022-12-19T10:20:15.190Z,-1.01
2022-12-19T10:21:42.936Z,-0.88
2022-12-19T10:22:46.351Z,-0.88
2022-12-19T10:24:10.367Z,-0.84
2022-12-19T10:25:23.973Z,-0.72
2022-12-19T10:26:47.329Z,-0.72
2022-12-19T10:28:00.558Z,-0.79
2022-12-19T10:29:43.486Z,-0.76
2022-12-19T10:31:11.360Z,-0.66
2022-12-19T10:32:27.992Z,-0.72
2022-12-19T10:33:59.812Z,-0.73
2022-12-19T10:35:11.639Z,-0.74
2022-12-19T10:36:15.967Z,-0.73
2022-12-19T10:37:37.409Z,-0.78
2022-12-19T10:38:59.587Z,-0.81
2022-12-19T10:40:14.318Z,-0.87
2022-12-19T10:41:28.086Z,-0.82
2022-12-19T10:42:38.372Z,-0.78
2022-12-19T10:44:08.412Z,-0.79
2022-12-19T10:45:18.236Z,-0.81
2022-12-19T10:46:42.844Z,-0.80
2022-12-19T10:47:58.623Z,-0.77
2022-12-19T10:49:06.635Z,-0.69
2022-12-19T10:50:17.484Z,-0.63
2022-12-19T10:51:26.594Z,-0.57
2022-12-19T10:52:52.526Z,-0.52
2022-12-19T10:53:57.665Z,-0.46
2022-12-19T10:55:00.499Z,-0.44
2022-12-19T10:56:20.883Z,-0.42
2022-12-19T10:57:29.597Z,-0.34
2022-12-19T10:58:37.973Z,-0.35
2022-12-19T10:59:54.207Z,-0.35
2022-12-19T11:01:17.865Z,-0.38
2022-12-19T11:02:35.184Z,-0.23
2022-12-19T11:03:40.312Z,-0.20
2022-12-19T11:04:43.115Z,-0.24
2022-12-19T11:05:57.645Z,-0.28
2022-12-19T11:07:05.265Z,-0.29
2022-12-19T11:08:07.976Z,-0.31
2022-12-19T11:09:19.264Z,-0.33
2022-12-19T11:12:38.534Z,-0.35
2022-12-19T11:16:37.167Z,-0.34
2022-12-19T11:18:41.906Z,-0.32
2022-12-19T11:19:23.218Z,-0.33
2022-12-19T11:24:05.307Z,-0.27
2022-12-19T11:24:13.648Z,-0.29
2022-12-19T11:29:27.405Z,-0.24
2022-12-19T11:29:38.522Z,-0.22
2022-12-19T11:29:41.547Z,-0.36
2022-12-19T11:29:44.965Z,-0.24
2022-12-19T11:30:09.734Z,-0.27
2022-12-19T11:30:48.371Z,-0.40
2022-12-19T11:31:50.906Z,-0.40
2022-12-19T11:32:36.480Z,-0.42
2022-12-19T11:33:27.365Z,-0.46
2022-12-19T11:34:37.330Z,-0.57
2022-12-19T11:35:49.649Z,-0.55
2022-12-19T11:37:19.210Z,-0.45
2022-12-19T11:38:45.630Z,-0.44
2022-12-19T11:39:58.788Z,-0.48
2022-12-19T11:41:12.128Z,-0.48
2022-12-19T11:42:26.091Z,-0.41
2022-12-19T11:43:55.218Z,-0.49
2022-12-19T11:45:17.939Z,-0.58
2022-12-19T11:46:29.081Z,-0.63
2022-12-19T11:47:40.894Z,-0.54
2022-12-19T11:48:56.559Z,-0.57
2022-12-19T11:50:13.644Z,-0.49
2022-12-19T11:51:19.603Z,-0.47
2022-12-19T11:54:27.619Z,-0.51
2022-12-19T11:55:44.404Z,-0.55
2022-12-19T11:56:47.177Z,-0.51
2022-12-19T11:57:50.047Z,-0.58
2022-12-19T11:59:00.247Z,-0.59
2022-12-19T12:00:05.582Z,-0.48
2022-12-19T12:01:18.075Z,-0.55
2022-12-19T12:02:29.471Z,-0.51
2022-12-19T12:03:55.925Z,-0.45
2022-12-19T12:05:10.005Z,-0.39
2022-12-19T12:06:17.477Z,-0.45
2022-12-19T12:08:17.498Z,-0.46
2022-12-19T12:11:19.004Z,-0.49
2022-12-19T12:14:45.493Z,-0.42
2022-12-19T12:16:53.524Z,-0.39
2022-12-19T12:23:39.983Z,-0.39
2022-12-19T12:24:32.482Z,-0.49
2022-12-19T12:27:10.908Z,-0.42
2022-12-19T12:31:02.008Z,-0.49
2022-12-19T12:31:13.019Z,-0.41
2022-12-19T12:31:39.254Z,-0.35
2022-12-19T12:31:39.751Z,-0.50
2022-12-19T12:31:41.323Z,-0.46
2022-12-19T12:31:49.208Z,-0.36
2022-12-19T12:31:57.030Z,-0.34
2022-12-19T12:32:00.572Z,-0.53
2022-12-19T12:35:51.512Z,-0.44
2022-12-19T12:39:04.730Z,-0.61
2022-12-19T12:40:44.769Z,-0.54
2022-12-19T12:42:27.637Z,-0.59
2022-12-19T12:43:52.026Z,-0.48
2022-12-19T12:44:59.618Z,-0.52
2022-12-19T12:46:05.599Z,-0.52
2022-12-19T12:47:22.486Z,-0.46
2022-12-19T12:48:50.792Z,-0.54
2022-12-19T12:50:04.348Z,-0.57
2022-12-19T12:51:07.749Z,-0.52
2022-12-19T12:52:16.609Z,-0.42
2022-12-19T12:53:25.424Z,-0.49
2022-12-19T12:54:34.895Z,-0.40
2022-12-19T12:55:42.085Z,-0.45
2022-12-19T12:56:47.078Z,-0.46
2022-12-19T12:57:50.009Z,-0.46
2022-12-19T12:58:54.330Z,-0.58
2022-12-19T13:00:16.617Z,-0.62
2022-12-19T13:01:35.982Z,-0.52
2022-12-19T13:02:39.066Z,-0.50
2022-12-19T13:03:43.372Z,-0.54
2022-12-19T13:04:58.914Z,-0.61
2022-12-19T13:06:21.267Z,-0.68
2022-12-19T13:07:50.448Z,-0.55
2022-12-19T13:09:22.821Z,-0.56
2022-12-19T13:10:26.839Z,-0.67
2022-12-19T13:11:47.969Z,-0.60
2022-12-19T13:13:00.844Z,-0.53
2022-12-19T13:14:04.684Z,-0.62
2022-12-19T13:15:30.090Z,-0.64
2022-12-19T13:16:44.944Z,-0.66
2022-12-19T13:17:47.759Z,-0.62
2022-12-19T13:19:25.776Z,-0.63
2022-12-19T13:20:30.850Z,-0.60
2022-12-19T13:22:04.949Z,-0.64
2022-12-19T13:23:41.971Z,-0.74
2022-12-19T13:24:51.007Z,-0.76
2022-12-19T13:25:55.294Z,-0.74
2022-12-19T13:26:57.878Z,-0.78
2022-12-19T13:28:03.143Z,-0.76
2022-12-19T13:29:51.491Z,-0.71
2022-12-19T13:31:20.894Z,-0.67
2022-12-19T13:32:25.021Z,-0.61
2022-12-19T13:33:52.052Z,-0.68
2022-12-19T13:35:06.246Z,-0.82
2022-12-19T13:39:49.254Z,-0.81
2022-12-19T13:39:57.351Z,-0.73
2022-12-19T13:40:07.447Z,-0.87
2022-12-19T13:41:47.331Z,-0.88
2022-12-19T13:43:27.610Z,-0.88
2022-12-19T13:44:32.164Z,-0.78
2022-12-19T13:45:35.760Z,-1.01
2022-12-19T13:46:45.946Z,-1.00
2022-12-19T13:47:51.461Z,-1.01
2022-12-19T13:49:01.545Z,-0.95
2022-12-19T13:50:15.692Z,-1.01
2022-12-19T13:51:18.752Z,-1.00
2022-12-19T13:52:23.088Z,-1.03
2022-12-19T13:53:29.053Z,-1.14
2022-12-19T13:54:45.758Z,-1.09
2022-12-19T13:55:49.083Z,-1.02
2022-12-19T13:56:53.752Z,-1.12
2022-12-19T13:57:57.323Z,-1.16
2022-12-19T13:59:03.952Z,-1.13
2022-12-19T14:00:17.351Z,-1.10
2022-12-19T14:01:33.613Z,-1.14
2022-12-19T14:02:45.269Z,-1.23
2022-12-19T14:03:51.088Z,-1.19
2022-12-19T14:04:54.132Z,-1.21
2022-12-19T14:06:16.591Z,-1.21
2022-12-19T14:07:40.443Z,-1.07
2022-12-19T14:08:46.136Z,-1.11
2022-12-19T14:11:29.041Z,-1.04
2022-12-19T14:11:40.202Z,-1.06
2022-12-19T14:13:58.097Z,-1.04
2022-12-19T14:14:44.733Z,-1.09
2022-12-19T14:15:52.167Z,-1.14
2022-12-19T14:16:56.551Z,-1.22
2022-12-19T14:18:43.398Z,-1.26
2022-12-19T14:19:47.203Z,-1.24
2022-12-19T14:22:10.104Z,-1.34
2022-12-19T14:22:29.661Z,-1.39
2022-12-19T14:23:38.145Z,-1.41
2022-12-19T14:25:32.690Z,-1.38
2022-12-19T14:28:18.230Z,-1.38
2022-12-19T14:28:26.305Z,-1.27
2022-12-19T14:30:28.762Z,-1.30
2022-12-19T14:31:08.064Z,-1.33
2022-12-19T14:33:39.191Z,-1.39
2022-12-19T14:33:43.921Z,-1.45
2022-12-19T14:36:06.249Z,-1.52
2022-12-19T14:36:33.894Z,-1.43
2022-12-19T14:39:22.990Z,-1.59
2022-12-19T14:39:25.611Z,-1.56
2022-12-19T14:40:32.053Z,-1.62
2022-12-19T14:42:01.726Z,-1.72
2022-12-19T14:43:59.341Z,-1.79
2022-12-19T14:51:42.861Z,-1.72
2022-12-19T14:54:00.456Z,-1.65
2022-12-19T14:54:06.398Z,-1.69
2022-12-19T14:54:07.406Z,-1.58
2022-12-19T14:54:08.151Z,-1.76
2022-12-19T14:54:30.492Z,-1.76
2022-12-19T14:56:14.096Z,-1.87
2022-12-19T14:57:02.268Z,-1.83
2022-12-19T14:58:53.140Z,-1.79
2022-12-19T14:59:46.246Z,-1.77
2022-12-19T15:01:09.468Z,-1.88
2022-12-19T15:02:32.589Z,-1.88
2022-12-19T15:04:47.662Z,-1.87
2022-12-19T15:05:18.984Z,-1.91
2022-12-19T15:07:08.622Z,-2.02
2022-12-19T15:07:54.531Z,-1.94
2022-12-19T15:11:00.975Z,-1.98
2022-12-19T15:11:05.356Z,-1.93
2022-12-19T15:14:04.173Z,-1.98
2022-12-19T15:14:52.402Z,-2.01
2022-12-19T15:15:22.370Z,-1.98
2022-12-19T15:16:27.073Z,-2.09
2022-12-19T15:17:29.901Z,-2.12
2022-12-19T15:18:32.781Z,-2.19
2022-12-19T15:19:35.548Z,-2.17
2022-12-19T15:20:38.451Z,-2.10
2022-12-19T15:21:41.217Z,-2.20